Terminal Aerodrome Forecast
Issued by NWS

Home | Current Version | Previous Version | Text Only | Print | Product List | Glossary On
Versions: 1 2 3 4 5 6 7 8 9 10 11 12 13 14 15 16 17 18 19 20 21 22 23 24 25
000
FTAK31 PANC 031122
TAFACD
TAF
PACD 031122Z 0312/0412 25013KT 6SM -SHSN SCT015 BKN035
      TEMPO 0312/0316 3SM -SN BR BKN015
     FM031600 31008KT P6SM -SHSN SCT025 BKN040
     FM040300 12007KT P6SM OVC050=

USA.gov is the U.S. government's official web portal to all federal, state and local government web resources and services.